Bellingham, Washington
Current Conditions -  °F | °C
As of 5:53 PM on Tuesday 25 Nov 2014 (Local Time) from KBLI Reporting Station
Light Rain Light Rain  
Wind Chill: 39°   Ceiling: 2400
Heat Index: 43°   Visibility: 2mi
Dew Point: 41°   Wind: 6mph
Humidity: 93%   Direction: 20°NNE
Pressure: 30.16"   Gusts: NA
Location:  48.75°N, 122.47°W
Report Text: KBLI 260153Z 02005KT 2SM -RA BR BKN024 OVC035 06/05 A3016 RMK AO2 SLP220 P0010 T00610050
Loading
Personal Weather Stations






























Interactive Weather Map New forecast layout! Learn more

10-Day Weather Forecast

Advertisements
Track Severe Weather on mobile